CPX714 Details

Departure: José María Córdova International Airport (SKRG) at 1430 UTC
Arrival: Miami International Airport (KMIA) at 1800 UTC
Route: BUTAL UQ105 KILER UG430 UCA UA301 URSUS FLIPR5


Current Weather Information
SKRG 251030Z 24003KT 9999 SCT010 SCT080 14/14 A3025 REDZ NOSIG
KMIA 250953Z 05005KT 10SM SCT033 25/18 A3003 RMK AO2 SLP170 T02500178 $